createdAt,value
2023-03-17T00:08:23.285Z,1011.27
2023-03-17T00:18:23.602Z,1011.22
2023-03-17T00:28:23.946Z,1011.16
2023-03-17T00:38:23.980Z,1011.12
2023-03-17T00:48:24.004Z,1011.15
2023-03-17T00:58:24.441Z,1011.07
2023-03-17T01:08:24.728Z,1010.90
2023-03-17T01:18:24.639Z,1010.71
2023-03-17T01:28:24.886Z,1010.58
2023-03-17T01:38:25.075Z,1010.51
2023-03-17T01:48:25.109Z,1010.51
2023-03-17T01:58:25.448Z,1010.40
2023-03-17T02:08:25.487Z,1010.31
2023-03-17T02:18:25.927Z,1010.19
2023-03-17T02:28:26.044Z,1010.24
2023-03-17T02:38:26.333Z,1010.23
2023-03-17T02:48:26.410Z,1010.09
2023-03-17T02:58:26.562Z,1010.03
2023-03-17T03:08:26.605Z,1010.09
2023-03-17T03:18:26.949Z,1010.14
2023-03-17T03:28:26.967Z,1010.21
2023-03-17T03:38:27.310Z,1010.36
2023-03-17T03:48:27.341Z,1010.66
2023-03-17T03:58:27.778Z,1010.64
2023-03-17T04:08:27.820Z,1010.72
2023-03-17T04:18:29.378Z,1010.82
2023-03-17T04:28:28.214Z,1010.83
2023-03-17T04:38:28.522Z,1010.94
2023-03-17T04:48:28.537Z,1010.91
2023-03-17T04:58:31.129Z,1010.98
2023-03-17T05:08:28.953Z,1010.89
2023-03-17T05:18:29.794Z,1010.93
2023-03-17T05:28:29.443Z,1010.91
2023-03-17T05:38:31.691Z,1010.90
2023-03-17T05:48:29.876Z,1010.98
2023-03-17T05:58:30.151Z,1010.82
2023-03-17T06:08:31.435Z,1010.79
2023-03-17T06:18:30.166Z,1010.84
2023-03-17T06:28:30.203Z,1010.93
2023-03-17T06:38:30.578Z,1011.08
2023-03-17T06:48:30.609Z,1011.09
2023-03-17T06:58:30.984Z,1011.14
2023-03-17T07:08:31.191Z,1011.14
2023-03-17T07:18:31.300Z,1011.02
2023-03-17T07:28:31.330Z,1011.01
2023-03-17T07:38:31.645Z,1010.97
2023-03-17T07:48:31.692Z,1010.80
2023-03-17T07:58:32.453Z,1010.92
2023-03-17T08:08:32.087Z,1010.95
2023-03-17T08:18:32.428Z,1010.97
2023-03-17T08:28:32.475Z,1010.88
2023-03-17T08:38:32.786Z,1010.81
2023-03-17T08:48:32.817Z,1010.76
2023-03-17T08:58:33.148Z,1010.73
2023-03-17T09:08:33.201Z,1010.52
2023-03-17T09:18:33.495Z,1010.60
2023-03-17T09:28:33.522Z,1010.45
2023-03-17T09:38:33.898Z,1010.35
2023-03-17T09:48:33.919Z,1010.28
2023-03-17T09:58:34.237Z,1010.23
2023-03-17T10:08:34.558Z,1010.12
2023-03-17T10:18:34.400Z,1010.03
2023-03-17T10:28:34.635Z,1009.95
2023-03-17T10:38:34.876Z,1009.80
2023-03-17T10:48:35.103Z,1009.74
2023-03-17T10:58:35.448Z,1009.79
2023-03-17T11:08:35.511Z,1009.61
2023-03-17T11:18:37.774Z,1009.47
2023-03-17T11:28:35.813Z,1009.27
2023-03-17T11:38:36.104Z,1009.21
2023-03-17T11:48:36.145Z,1009.19
2023-03-17T11:58:36.466Z,1009.06
2023-03-17T12:08:36.488Z,1009.04
2023-03-17T12:18:36.832Z,1008.90
2023-03-17T12:28:36.867Z,1008.83
2023-03-17T12:38:37.219Z,1008.72
2023-03-17T12:48:37.243Z,1008.68
2023-03-17T12:58:37.578Z,1008.60
2023-03-17T13:08:37.592Z,1008.46
2023-03-17T13:18:37.944Z,1008.20
2023-03-17T13:28:37.973Z,1008.27
2023-03-17T13:38:39.242Z,1008.16
2023-03-17T13:48:38.524Z,1008.25
2023-03-17T13:58:38.798Z,1008.22
2023-03-17T14:08:38.830Z,1008.18
2023-03-17T14:18:39.162Z,1008.27
2023-03-17T14:28:39.245Z,1008.16
2023-03-17T14:38:39.321Z,1008.20
2023-03-17T14:48:39.349Z,1008.29
2023-03-17T14:58:39.700Z,1008.30
2023-03-17T15:08:39.730Z,1008.24
2023-03-17T15:18:40.062Z,1008.18
2023-03-17T15:28:40.084Z,1008.25
2023-03-17T15:38:40.430Z,1008.20
2023-03-17T15:48:40.613Z,1008.23
2023-03-17T15:58:40.704Z,1008.34
2023-03-17T16:08:40.799Z,1008.40
2023-03-17T16:18:42.088Z,1008.46
2023-03-17T16:28:41.158Z,1008.36
2023-03-17T16:38:41.436Z,1008.40
2023-03-17T16:48:41.460Z,1008.35
2023-03-17T16:58:41.803Z,1008.52
2023-03-17T17:08:42.139Z,1008.57
2023-03-17T17:18:45.691Z,1008.69
2023-03-17T17:28:42.277Z,1008.84
2023-03-17T17:38:42.587Z,1008.89
2023-03-17T17:48:42.614Z,1008.91
2023-03-17T17:58:42.958Z,1008.89
2023-03-17T18:08:42.892Z,1008.95
2023-03-17T18:18:44.440Z,1008.91
2023-03-17T18:28:43.381Z,1008.90
2023-03-17T18:38:47.003Z,1008.88
2023-03-17T18:48:43.980Z,1008.94
2023-03-17T18:58:44.201Z,1009.10
2023-03-17T19:08:44.358Z,1009.17
2023-03-17T19:18:44.554Z,1009.17
2023-03-17T19:28:44.777Z,1009.14
2023-03-17T19:39:06.039Z,1009.18
2023-03-17T19:48:45.240Z,1009.16
2023-03-17T19:58:45.436Z,1009.24
2023-03-17T20:08:45.397Z,1009.41
2023-03-17T20:18:47.702Z,1009.54
2023-03-17T20:28:45.875Z,1009.52
2023-03-17T20:38:46.310Z,1009.63
2023-03-17T20:48:46.260Z,1009.83
2023-03-17T20:58:46.529Z,1009.78
2023-03-17T21:08:46.729Z,1009.79
2023-03-17T21:18:46.895Z,1009.71
2023-03-17T21:28:47.142Z,1009.70
2023-03-17T21:38:47.396Z,1009.75
2023-03-17T21:48:47.310Z,1009.74
2023-03-17T21:58:47.569Z,1009.76
2023-03-17T22:08:48.148Z,1009.88
2023-03-17T22:18:48.189Z,1009.91
2023-03-17T22:28:48.216Z,1009.86
2023-03-17T22:38:48.493Z,1009.82
2023-03-17T22:48:48.538Z,1009.93
2023-03-17T22:58:48.965Z,1010.02
2023-03-17T23:08:48.998Z,1010.06
2023-03-17T23:18:51.657Z,1010.16
2023-03-17T23:28:50.255Z,1010.27
2023-03-17T23:38:49.554Z,1010.32
2023-03-17T23:48:49.798Z,1010.38
2023-03-17T23:58:49.891Z,1010.48
